Time;durP1;ratioP1;P1;durP2;ratioP2;P2;SDS_P1;SDS_P2;PMS_P1;PMS_P2;Temp;Humidity;BMP_temperature;BMP_pressure;BME280_temperature;BME280_humidity;BME280_pressure;Samples;Min_cycle;Max_cycle;Signal;HPM_P1;HPM_P2
2022/08/20 00:00:37;;;;;;;14.52;12.15;;;;;;;20.09;93.79;101418.72;5113452;28;20015;-56
2022/08/20 00:03:06;;;;;;;17.50;12.98;;;;;;;20.01;93.38;101411.38;5113512;28;20035;-56
2022/08/20 00:05:40;;;;;;;18.42;13.30;;;;;;;20.02;95.22;101402.25;5113257;28;20025;-56
2022/08/20 00:08:07;;;;;;;16.20;12.57;;;;;;;20.04;94.09;101407.53;5113478;28;20031;-56
2022/08/20 00:10:39;;;;;;;13.43;12.00;;;;;;;20.04;94.13;101410.22;5146621;27;20007;-56
2022/08/20 00:13:07;;;;;;;14.25;11.95;;;;;;;20.11;94.49;101412.19;5112828;28;20072;-56
2022/08/20 00:15:35;;;;;;;14.02;12.20;;;;;;;20.12;93.57;101405.81;5113390;27;20536;-56
2022/08/20 00:18:01;;;;;;;14.48;12.52;;;;;;;20.15;94.42;101407.38;5113182;28;20035;-56
2022/08/20 00:20:30;;;;;;;13.30;11.85;;;;;;;20.06;93.91;101392.00;5112902;28;20073;-56
2022/08/20 00:22:57;;;;;;;13.55;12.13;;;;;;;20.10;94.09;101398.84;5113105;28;20035;-56
2022/08/20 00:25:25;;;;;;;16.67;12.75;;;;;;;20.13;94.18;101398.56;5113254;28;20027;-56
2022/08/20 00:27:51;;;;;;;16.80;11.48;;;;;;;20.07;94.29;101399.13;5112611;28;20069;-56
2022/08/20 00:30:16;;;;;;;13.65;12.25;;;;;;;20.10;93.66;101404.25;5113031;28;20462;-56
2022/08/20 00:33:04;;;;;;;16.40;12.95;;;;;;;20.07;93.97;101404.53;5111505;28;20031;-56
2022/08/20 00:35:33;;;;;;;14.35;12.02;;;;;;;19.99;94.81;101393.59;5112736;28;20028;-56
2022/08/20 00:37:58;;;;;;;16.30;12.75;;;;;;;20.05;94.57;101406.53;5112918;28;20053;-56
2022/08/20 00:40:33;;;;;;;16.10;12.55;;;;;;;20.01;94.77;101403.25;5112674;28;20020;-56
2022/08/20 00:43:02;;;;;;;18.45;12.75;;;;;;;20.08;94.26;101407.06;5110907;28;20074;-56
2022/08/20 00:45:34;;;;;;;13.43;12.02;;;;;;;20.05;95.76;101403.81;5112801;28;20597;-56
2022/08/20 00:48:01;;;;;;;15.48;12.88;;;;;;;20.01;95.30;101402.41;5111409;28;20028;-56
2022/08/20 00:50:32;;;;;;;15.88;12.38;;;;;;;19.99;96.55;101402.53;5112332;28;20015;-56
2022/08/20 00:53:01;;;;;;;23.00;12.52;;;;;;;19.96;94.97;101406.38;5111649;28;20024;-56
2022/08/20 00:55:28;;;;;;;14.02;12.52;;;;;;;19.96;95.20;101403.69;5112544;28;20432;-56
2022/08/20 00:57:58;;;;;;;16.65;13.00;;;;;;;19.99;97.12;101393.59;5110791;28;20051;-56
2022/08/20 01:00:29;;;;;;;15.93;13.20;;;;;;;19.96;95.56;101409.09;5112525;28;20019;-56
2022/08/20 01:02:59;;;;;;;13.55;11.93;;;;;;;19.98;95.66;101405.41;5112237;28;20382;-56
2022/08/20 01:05:25;;;;;;;13.35;11.23;;;;;;;19.93;95.42;101406.66;5112483;28;20023;-56
2022/08/20 01:07:52;;;;;;;13.82;12.32;;;;;;;19.92;95.30;101399.56;5112381;28;20064;-56
2022/08/20 01:10:31;;;;;;;14.02;12.65;;;;;;;19.94;94.75;101404.81;5111006;28;20015;-56
2022/08/20 01:12:58;;;;;;;14.77;12.27;;;;;;;19.86;94.87;101407.41;5110564;28;20042;-56
2022/08/20 01:15:27;;;;;;;16.17;13.05;;;;;;;19.85;95.23;101409.22;5112356;28;20035;-56
2022/08/20 01:17:57;;;;;;;14.82;12.85;;;;;;;19.83;94.87;101400.44;5112130;28;20364;-56
2022/08/20 01:20:30;;;;;;;15.43;13.70;;;;;;;19.82;96.03;101398.72;5112130;28;20012;-56
2022/08/20 01:23:29;;;;;;;19.15;13.95;;;;;;;19.82;95.24;101401.41;5112164;28;20031;-56
2022/08/20 01:26:36;;;;;;;16.40;14.73;;;;;;;19.91;95.00;101407.81;5112280;28;20032;-56
2022/08/20 01:29:11;;;;;;;17.05;15.30;;;;;;;19.71;95.67;101410.53;5103643;27;20084;-56
2022/08/20 01:31:40;;;;;;;16.38;14.60;;;;;;;19.67;96.20;101408.25;5112053;28;20062;-56
2022/08/20 01:34:11;;;;;;;17.10;15.32;;;;;;;19.65;96.79;101403.00;5111800;28;20110;-56
2022/08/20 01:36:47;;;;;;;17.38;14.85;;;;;;;19.74;96.59;101407.56;5112152;28;20098;-56
2022/08/20 01:39:24;;;;;;;19.38;15.70;;;;;;;19.70;96.01;101408.81;5112024;28;20390;-56
2022/08/20 01:42:18;;;;;;;17.50;15.63;;;;;;;19.75;96.12;101405.69;5110976;28;20134;-56
2022/08/20 01:44:46;;;;;;;18.60;16.02;;;;;;;19.62;97.13;101400.56;5111605;28;20024;-56
2022/08/20 01:47:30;;;;;;;23.05;16.73;;;;;;;19.74;97.13;101404.84;5110756;28;20023;-56
2022/08/20 01:50:20;;;;;;;20.48;16.15;;;;;;;19.71;97.23;101396.19;5144773;27;20020;-56
2022/08/20 01:52:58;;;;;;;19.58;15.93;;;;;;;19.60;96.98;101405.25;5111942;28;20049;-56
2022/08/20 01:55:26;;;;;;;19.23;16.42;;;;;;;19.64;96.34;101406.66;5111773;28;20043;-56
2022/08/20 01:57:52;;;;;;;21.33;16.80;;;;;;;19.55;96.88;101410.22;5110409;28;20375;-56
2022/08/20 02:00:19;;;;;;;19.52;15.70;;;;;;;19.56;97.12;101409.22;5111873;28;20039;-56
2022/08/20 02:02:47;;;;;;;22.27;17.15;;;;;;;19.60;96.15;101412.50;5111707;28;20435;-56
2022/08/20 02:05:13;;;;;;;21.48;16.67;;;;;;;19.58;96.95;101403.69;5148837;27;20024;-56
2022/08/20 02:07:39;;;;;;;21.92;16.33;;;;;;;19.53;96.98;101409.53;5114617;28;20427;-56
2022/08/20 02:10:10;;;;;;;19.50;17.15;;;;;;;19.60;97.40;101413.34;5115972;28;20023;-56
2022/08/20 02:12:36;;;;;;;19.17;17.08;;;;;;;19.58;97.28;101407.22;5115497;28;20517;-56
2022/08/20 02:15:02;;;;;;;22.25;17.23;;;;;;;19.62;97.05;101407.78;5115251;28;20118;-56
2022/08/20 02:17:28;;;;;;;23.35;17.95;;;;;;;19.57;97.13;101415.47;5115454;28;20028;-56
2022/08/20 02:20:06;;;;;;;22.08;17.20;;;;;;;19.57;97.15;101413.63;5115458;28;20038;-56
2022/08/20 02:22:43;;;;;;;22.58;16.83;;;;;;;19.55;97.57;101417.47;5115427;28;20019;-56
2022/08/20 02:25:12;;;;;;;21.10;17.20;;;;;;;19.52;97.50;101415.88;5115484;28;20032;-56
2022/08/20 02:27:41;;;;;;;20.30;17.05;;;;;;;19.49;97.15;101422.41;5113878;28;20473;-56
2022/08/20 02:30:12;;;;;;;28.52;16.90;;;;;;;19.40;97.24;101404.38;5115123;28;20018;-56
2022/08/20 02:32:38;;;;;;;26.17;16.42;;;;;;;19.35;97.23;101403.94;5115297;27;20389;-56
2022/08/20 02:35:12;;;;;;;20.30;15.60;;;;;;;19.45;97.07;101403.97;5115345;28;20094;-56
2022/08/20 02:37:40;;;;;;;20.67;16.30;;;;;;;19.41;96.64;101407.91;5115115;28;20163;-56
2022/08/20 02:40:08;;;;;;;23.23;16.17;;;;;;;19.37;96.33;101407.34;5113970;28;20394;-56
2022/08/20 02:42:35;;;;;;;21.17;16.52;;;;;;;19.41;97.30;101416.91;5115351;28;20031;-56
2022/08/20 02:45:00;;;;;;;25.75;17.45;;;;;;;19.37;97.27;101411.91;5114520;28;20160;-56
2022/08/20 02:47:26;;;;;;;22.90;17.90;;;;;;;19.32;96.83;101424.94;5114781;28;20111;-56
2022/08/20 02:49:53;;;;;;;28.92;18.13;;;;;;;19.30;96.60;101417.00;5113595;28;20546;-56
2022/08/20 02:52:20;;;;;;;27.67;19.48;;;;;;;19.36;96.92;101421.84;5113664;28;20039;-56
2022/08/20 02:54:49;;;;;;;28.98;18.85;;;;;;;19.32;95.69;101417.72;5114959;28;20047;-56
2022/08/20 02:57:19;;;;;;;26.75;20.38;;;;;;;19.28;95.94;101419.84;5113580;28;20048;-56
2022/08/20 02:59:45;;;;;;;33.30;21.00;;;;;;;19.21;95.95;101410.63;5114395;27;20024;-56
2022/08/20 03:02:12;;;;;;;26.50;20.58;;;;;;;19.18;96.60;101421.69;5114987;28;20023;-56
2022/08/20 03:04:42;;;;;;;29.65;21.35;;;;;;;19.12;96.74;101422.22;5114443;28;20474;-56
2022/08/20 03:07:12;;;;;;;30.95;23.50;;;;;;;19.14;97.53;101422.06;5114704;28;20028;-56
2022/08/20 03:09:39;;;;;;;26.40;22.27;;;;;;;19.10;96.55;101415.28;5114536;28;20432;-56
2022/08/20 03:12:06;;;;;;;34.53;23.05;;;;;;;19.11;97.60;101420.50;5114528;28;20047;-56
2022/08/20 03:14:35;;;;;;;36.22;22.27;;;;;;;19.14;97.32;101416.69;5113390;28;20027;-56
2022/08/20 03:17:03;;;;;;;31.08;21.90;;;;;;;19.08;95.87;101428.03;5113958;28;20110;-56
2022/08/20 03:19:29;;;;;;;26.95;20.58;;;;;;;19.04;95.81;101420.22;5095987;28;20036;-56
2022/08/20 03:21:54;;;;;;;26.52;20.75;;;;;;;19.02;95.61;101418.66;5114394;28;20053;-56
2022/08/20 03:24:20;;;;;;;27.60;20.63;;;;;;;18.93;95.68;101420.31;5112796;28;20035;-56
2022/08/20 03:26:45;;;;;;;31.17;21.23;;;;;;;18.93;95.29;101424.88;5113164;28;20126;-56
2022/08/20 03:29:11;;;;;;;30.85;19.67;;;;;;;18.91;95.51;101424.13;5113607;28;20023;-56
2022/08/20 03:31:37;;;;;;;28.75;20.33;;;;;;;18.91;94.87;101432.22;5114242;28;20027;-56
2022/08/20 03:34:02;;;;;;;31.23;20.55;;;;;;;18.93;95.37;101431.09;5114007;28;20406;-56
2022/08/20 03:36:29;;;;;;;28.83;19.52;;;;;;;18.83;95.15;101424.84;5114036;28;20027;-56
2022/08/20 03:39:00;;;;;;;34.28;19.65;;;;;;;18.90;95.19;101439.47;5113944;28;20539;-56
2022/08/20 03:41:25;;;;;;;25.73;18.15;;;;;;;18.89;94.50;101437.78;5114040;28;20099;-56
2022/08/20 03:43:51;;;;;;;28.65;19.95;;;;;;;18.86;93.89;101438.03;5111916;28;20119;-56
2022/08/20 03:46:16;;;;;;;31.10;19.98;;;;;;;18.84;94.11;101438.16;5095514;28;20051;-56
2022/08/20 03:48:42;;;;;;;28.75;20.27;;;;;;;18.83;94.39;101446.41;5114075;28;20119;-56
2022/08/20 03:51:08;;;;;;;32.40;18.35;;;;;;;18.90;94.36;101441.31;5113719;28;20032;-56
2022/08/20 03:53:34;;;;;;;29.48;18.98;;;;;;;18.79;94.74;101444.94;5113622;28;20027;-56
2022/08/20 03:56:03;;;;;;;32.92;18.92;;;;;;;18.72;93.99;101439.22;5112256;28;20537;-56
2022/08/20 03:58:30;;;;;;;29.42;18.67;;;;;;;18.78;94.12;101446.78;5112895;28;20023;-56
2022/08/20 04:00:56;;;;;;;33.17;20.20;;;;;;;18.74;93.95;101447.22;5113688;28;20076;-56
2022/08/20 04:03:22;;;;;;;29.27;18.77;;;;;;;18.68;93.63;101447.69;5112262;28;20420;-57
2022/08/20 04:05:48;;;;;;;26.38;19.30;;;;;;;18.60;94.35;101445.69;5113692;28;20031;-56
2022/08/20 04:08:22;;;;;;;28.58;18.83;;;;;;;18.61;94.25;101445.53;5112753;28;20024;-56
2022/08/20 04:10:50;;;;;;;29.08;19.27;;;;;;;18.59;94.44;101452.06;5113509;28;20031;-56
2022/08/20 04:13:18;;;;;;;32.25;22.00;;;;;;;18.55;95.04;101458.69;5112656;28;20042;-56
2022/08/20 04:15:47;;;;;;;30.67;21.15;;;;;;;18.56;94.55;101453.19;5113383;28;20463;-56
2022/08/20 04:18:13;;;;;;;30.20;21.33;;;;;;;18.60;95.08;101456.47;5112192;28;20016;-56
2022/08/20 04:20:41;;;;;;;31.75;21.40;;;;;;;18.57;95.81;101452.19;5113238;28;20023;-56
2022/08/20 04:23:09;;;;;;;35.70;23.73;;;;;;;18.58;94.90;101461.13;5111803;28;20026;-56
2022/08/20 04:25:40;;;;;;;34.00;23.48;;;;;;;18.54;95.23;101455.16;5094752;28;20023;-56
2022/08/20 04:28:09;;;;;;;35.92;23.92;;;;;;;18.52;95.07;101459.81;5110842;28;20531;-56
2022/08/20 04:30:35;;;;;;;34.42;23.42;;;;;;;18.58;94.87;101459.28;5146299;27;20535;-56
2022/08/20 04:33:03;;;;;;;30.90;24.52;;;;;;;18.66;95.44;101458.63;5112896;28;20027;-56
2022/08/20 04:35:29;;;;;;;31.33;27.08;;;;;;;18.59;95.64;101466.41;5112764;28;20091;-56
2022/08/20 04:38:01;;;;;;;34.83;26.05;;;;;;;18.60;95.65;101468.09;5112918;28;20030;-56
2022/08/20 04:43:13;;;;;;;37.13;29.30;;;;;;;18.61;95.41;101471.63;5112641;28;20105;-56
2022/08/20 04:45:39;;;;;;;41.53;31.25;;;;;;;18.57;95.56;101473.75;5112264;28;20028;-56
2022/08/20 04:48:06;;;;;;;42.10;31.08;;;;;;;18.64;95.96;101481.31;5112506;28;20527;-56
2022/08/20 04:50:36;;;;;;;40.88;31.05;;;;;;;18.58;96.06;101477.28;5112728;28;20076;-58
2022/08/20 04:53:08;;;;;;;36.58;30.15;;;;;;;18.65;95.73;101491.06;5112541;28;20027;-56
2022/08/20 04:55:41;;;;;;;38.90;31.25;;;;;;;18.57;95.14;101489.91;5111030;28;20043;-56
2022/08/20 04:58:32;;;;;;;41.35;31.08;;;;;;;18.58;95.09;101491.63;5112038;28;20501;-56
2022/08/20 05:01:00;;;;;;;43.22;30.95;;;;;;;18.46;95.06;101495.38;5112531;28;20036;-56
2022/08/20 05:03:29;;;;;;;37.20;29.60;;;;;;;18.49;94.95;101497.81;5112259;28;20020;-56
2022/08/20 05:05:55;;;;;;;38.13;30.00;;;;;;;18.48;95.38;101497.94;5111398;28;20269;-56
2022/08/20 05:08:22;;;;;;;36.25;29.33;;;;;;;18.37;94.87;101493.47;5112285;28;20050;-56
2022/08/20 05:10:48;;;;;;;41.63;29.48;;;;;;;18.44;94.91;101501.88;5111056;28;20502;-56
2022/08/20 05:13:15;;;;;;;40.50;29.00;;;;;;;18.46;94.41;101500.75;5110514;28;20111;-56
2022/08/20 05:15:44;;;;;;;43.10;29.33;;;;;;;18.46;94.06;101497.22;5112343;28;20030;-56
2022/08/20 05:18:10;;;;;;;37.70;28.15;;;;;;;18.45;93.91;101501.75;5112116;28;20410;-56
2022/08/20 05:20:41;;;;;;;37.47;29.13;;;;;;;18.47;94.92;101507.00;5112133;28;20417;-56
2022/08/20 05:23:09;;;;;;;37.20;28.05;;;;;;;18.47;94.06;101507.00;5112140;28;20031;-56
2022/08/20 05:25:37;;;;;;;39.20;28.35;;;;;;;18.46;93.93;101500.75;5111830;28;20028;-56
2022/08/20 05:28:17;;;;;;;39.17;30.25;;;;;;;18.46;94.11;101506.16;5111609;28;20106;-56
2022/08/20 05:30:44;;;;;;;38.95;27.98;;;;;;;18.40;93.95;101498.59;5112081;28;20103;-56
2022/08/20 05:33:12;;;;;;;42.42;30.73;;;;;;;18.38;94.24;101514.03;5110734;28;20068;-56
2022/08/20 05:35:39;;;;;;;32.93;28.97;;;;;;;18.37;95.07;101512.31;5112037;28;20030;-56
2022/08/20 05:38:07;;;;;;;36.30;29.30;;;;;;;18.32;94.77;101519.94;5111981;28;20016;-56
2022/08/20 05:40:34;;;;;;;40.17;30.58;;;;;;;18.29;94.17;101517.50;5116027;28;20016;-56
2022/08/20 05:43:03;;;;;;;52.53;30.98;;;;;;;18.35;94.15;101525.06;5115753;28;20122;-56
2022/08/20 05:45:28;;;;;;;;;;;;;;;18.48;92.99;101527.59;5116582;28;20076;-56
2022/08/20 05:47:54;;;;;;;43.72;31.70;;;;;;;18.31;94.06;101529.88;5115894;28;19963;-56
2022/08/20 05:50:19;;;;;;;47.22;33.13;;;;;;;18.21;94.32;101528.94;5115980;28;20018;-56
2022/08/20 05:52:45;;;;;;;47.58;32.90;;;;;;;18.28;94.66;101532.81;5115651;28;20032;-56
2022/08/20 05:55:15;;;;;;;49.17;34.47;;;;;;;18.25;94.53;101527.69;5116147;28;20028;-56
2022/08/20 05:57:41;;;;;;;41.58;33.55;;;;;;;18.21;94.30;101528.94;5113819;28;20104;-56
2022/08/20 06:00:10;;;;;;;49.83;35.03;;;;;;;18.20;95.06;101532.59;5115875;28;20627;-56
2022/08/20 06:05:22;;;;;;;47.85;34.90;;;;;;;18.28;94.66;101537.34;5144382;27;20042;-56
2022/08/20 06:07:49;;;;;;;51.13;34.53;;;;;;;18.23;94.36;101528.81;5115573;28;20105;-56
2022/08/20 06:10:17;;;;;;;47.05;34.20;;;;;;;18.26;94.63;101534.78;5131646;27;20098;-56
2022/08/20 06:12:44;;;;;;;57.35;35.33;;;;;;;18.26;94.60;101539.31;5115310;28;20028;-56
2022/08/20 06:15:11;;;;;;;47.30;34.50;;;;;;;18.25;95.40;101537.63;5114440;28;20024;-56
2022/08/20 06:17:36;;;;;;;52.65;33.85;;;;;;;18.31;94.78;101534.41;5114098;28;20042;-56
2022/08/20 06:20:06;;;;;;;51.90;35.75;;;;;;;18.31;95.09;101543.31;5114203;28;20031;-56
2022/08/20 06:22:33;;;;;;;53.08;34.58;;;;;;;18.35;95.15;101544.78;5115308;28;20027;-56
2022/08/20 06:24:58;;;;;;;51.72;34.65;;;;;;;18.32;94.86;101541.47;5113987;28;20027;-56
2022/08/20 06:27:25;;;;;;;52.42;35.13;;;;;;;18.29;95.17;101539.06;5114090;28;20119;-56
2022/08/20 06:29:52;;;;;;;48.75;35.47;;;;;;;18.35;95.36;101536.72;5114971;28;20016;-56
2022/08/20 06:32:20;;;;;;;53.10;35.92;;;;;;;18.39;94.98;101527.38;5115321;28;20024;-56
2022/08/20 06:34:47;;;;;;;52.65;35.42;;;;;;;18.37;95.04;101529.34;5115318;28;20077;-56
2022/08/20 06:37:15;;;;;;;56.92;36.15;;;;;;;18.45;94.71;101534.09;5097044;28;20032;-56
2022/08/20 06:39:41;;;;;;;50.97;37.30;;;;;;;18.46;95.26;101533.09;5115003;28;20385;-56
2022/08/20 06:42:07;;;;;;;50.70;35.92;;;;;;;18.55;94.90;101540.38;5114902;28;20023;-56
2022/08/20 06:44:33;;;;;;;54.55;37.42;;;;;;;18.59;96.02;101532.91;5114495;27;20431;-56
2022/08/20 06:47:00;;;;;;;53.60;39.00;;;;;;;18.56;95.23;101542.09;5115018;28;20047;-56
2022/08/20 06:49:26;;;;;;;56.88;39.78;;;;;;;18.57;94.95;101540.25;5114729;28;20024;-56
2022/08/20 06:51:52;;;;;;;61.08;41.30;;;;;;;18.55;94.77;101536.84;5147847;27;20035;-56
2022/08/20 06:54:17;;;;;;;51.30;39.47;;;;;;;18.53;94.37;101542.38;5096488;28;20516;-56
2022/08/20 06:56:43;;;;;;;57.15;40.75;;;;;;;18.57;95.49;101535.72;5113152;28;20406;-56
2022/08/20 06:59:08;;;;;;;56.90;41.67;;;;;;;18.59;95.18;101535.59;5096262;28;20061;-56
2022/08/20 07:01:34;;;;;;;60.47;41.70;;;;;;;18.65;94.87;101534.19;5113597;28;20486;-56
2022/08/20 07:04:00;;;;;;;59.20;40.45;;;;;;;18.69;95.33;101544.59;5096280;28;20024;-56
2022/08/20 07:06:26;;;;;;;55.40;40.45;;;;;;;18.72;95.06;101549.72;5113190;28;20062;-56
2022/08/20 07:08:53;;;;;;;60.90;41.47;;;;;;;18.75;95.49;101538.69;5114487;28;20020;-56
2022/08/20 07:11:19;;;;;;;60.42;42.33;;;;;;;18.72;94.55;101546.16;5114570;28;20028;-56
2022/08/20 07:13:45;;;;;;;58.33;42.30;;;;;;;18.67;93.69;101538.47;5113995;28;20020;-56
2022/08/20 07:16:11;;;;;;;63.47;42.50;;;;;;;18.67;94.71;101538.47;5113449;28;20060;-56
2022/08/20 07:18:37;;;;;;;57.08;40.78;;;;;;;18.77;95.21;101555.59;5095644;28;20031;-56
2022/08/20 07:21:02;;;;;;;54.88;39.45;;;;;;;18.86;94.66;101559.34;5129967;27;20107;-56
2022/08/20 07:23:30;;;;;;;55.22;40.25;;;;;;;18.93;94.55;101551.56;5112989;28;20027;-56
2022/08/20 07:25:55;;;;;;;53.97;40.22;;;;;;;18.96;95.03;101567.47;5113212;28;20390;-56
2022/08/20 07:28:23;;;;;;;50.10;38.53;;;;;;;18.96;94.48;101568.31;5112134;28;20034;-56
2022/08/20 07:33:34;;;;;;;51.72;36.00;;;;;;;19.01;93.73;101567.94;5114213;28;20060;-56
2022/08/20 07:36:03;;;;;;;53.08;38.53;;;;;;;18.98;93.08;101569.06;5113980;28;20134;-56
2022/08/20 07:38:30;;;;;;;54.85;38.42;;;;;;;18.98;93.69;101574.44;5113878;28;20478;-56
2022/08/20 07:41:06;;;;;;;54.17;37.75;;;;;;;18.99;94.23;101564.50;5114124;28;20374;-56
2022/08/20 07:43:33;;;;;;;52.83;37.17;;;;;;;19.05;93.38;101574.75;5113415;28;20020;-56
2022/08/20 07:46:00;;;;;;;50.28;36.47;;;;;;;19.14;92.77;101578.50;5146960;27;20074;-56
2022/08/20 07:48:29;;;;;;;51.97;36.65;;;;;;;19.27;93.77;101581.81;5112260;28;20478;-56
2022/08/20 07:50:56;;;;;;;45.08;35.38;;;;;;;19.35;91.99;101581.97;5113733;28;20047;-56
2022/08/20 07:53:22;;;;;;;48.25;35.47;;;;;;;19.56;91.65;101589.16;5113576;28;20079;-56
2022/08/20 07:55:49;;;;;;;47.47;34.92;;;;;;;19.59;90.61;101589.75;5113678;28;20046;-56
2022/08/20 07:58:18;;;;;;;48.15;35.08;;;;;;;19.78;90.69;101593.53;5113285;28;20024;-56
2022/08/20 08:00:44;;;;;;;48.95;33.67;;;;;;;19.79;89.46;101587.13;5112122;28;20549;-56
2022/08/20 08:03:09;;;;;;;40.95;33.83;;;;;;;19.78;88.96;101601.63;5113059;28;20145;-56
2022/08/20 08:05:38;;;;;;;42.50;33.80;;;;;;;19.72;89.34;101603.03;5112937;28;20489;-56
2022/08/20 08:08:07;;;;;;;47.47;34.37;;;;;;;19.64;89.61;101600.97;5113328;28;20038;-56
2022/08/20 08:10:34;;;;;;;;;;;;;;;19.91;89.84;101605.78;5113918;28;20265;-56
2022/08/20 08:13:03;;;;;;;46.95;32.72;;;;;;;20.14;89.76;101608.22;5145553;27;19919;-56
2022/08/20 08:15:32;;;;;;;40.65;32.65;;;;;;;20.41;87.64;101604.81;5112969;28;20064;-56
2022/08/20 08:18:04;;;;;;;40.50;33.03;;;;;;;20.64;87.32;101598.16;5112767;28;20458;-56
2022/08/20 08:20:30;;;;;;;38.58;29.17;;;;;;;20.92;85.37;101605.53;5112983;28;20035;-56
2022/08/20 08:22:59;;;;;;;34.85;25.33;;;;;;;20.73;82.26;101606.41;5095275;28;20039;-56
2022/08/20 08:25:25;;;;;;;29.23;23.65;;;;;;;20.69;81.89;101605.00;5112954;28;20020;-56
2022/08/20 08:27:51;;;;;;;32.55;22.27;;;;;;;20.91;81.31;101611.91;5111046;28;20031;-56
2022/08/20 08:30:17;;;;;;;31.80;22.63;;;;;;;21.01;80.32;101610.06;5111725;28;20119;-56
2022/08/20 08:35:26;;;;;;;27.63;21.23;;;;;;;21.46;77.42;101603.94;5113121;28;20065;-56
2022/08/20 08:37:52;;;;;;;26.98;20.65;;;;;;;21.52;79.46;101601.47;5111338;28;20039;-56
2022/08/20 08:40:19;;;;;;;21.83;17.60;;;;;;;21.43;76.53;101615.91;5112649;28;20027;-56
2022/08/20 08:42:54;;;;;;;19.77;17.38;;;;;;;21.22;77.67;101615.25;5112695;28;20370;-56
2022/08/20 08:45:20;;;;;;;22.60;17.02;;;;;;;21.36;76.66;101613.94;5111474;28;20426;-56
2022/08/20 08:47:46;;;;;;;20.13;16.60;;;;;;;21.54;75.54;101623.00;5112196;28;20076;-56
2022/08/20 08:50:32;;;;;;;20.63;16.13;;;;;;;21.72;74.73;101628.47;5111945;28;20023;-56
2022/08/20 08:52:59;;;;;;;22.88;16.15;;;;;;;22.08;74.18;101634.81;5112527;28;20062;-56
2022/08/20 08:55:27;;;;;;;20.85;14.88;;;;;;;22.05;72.85;101631.56;5112523;28;20028;-56
2022/08/20 08:57:55;;;;;;;19.67;13.80;;;;;;;21.79;72.20;101626.84;5111987;28;20055;-56
2022/08/20 09:00:22;;;;;;;22.67;13.60;;;;;;;21.59;71.98;101627.94;5111259;28;20466;-56
2022/08/20 09:02:58;;;;;;;20.75;13.27;;;;;;;21.44;72.90;101631.19;5112149;28;20300;-56
2022/08/20 09:05:30;;;;;;;22.00;14.25;;;;;;;21.62;72.85;101631.25;5112339;28;20023;-56
2022/08/20 09:08:01;;;;;;;19.52;13.95;;;;;;;21.78;71.91;101636.84;5110641;28;20034;-56
2022/08/20 09:10:27;;;;;;;17.65;13.88;;;;;;;22.05;71.00;101639.69;5112211;28;20021;-56
2022/08/20 09:12:53;;;;;;;15.60;13.43;;;;;;;22.20;70.52;101635.47;5110004;28;20058;-56
2022/08/20 09:15:20;;;;;;;19.95;11.70;;;;;;;22.33;68.02;101646.81;5112087;28;20069;-56
2022/08/20 09:17:45;;;;;;;20.95;10.05;;;;;;;22.52;65.75;101643.06;5112081;28;20016;-56
2022/08/20 09:20:13;;;;;;;18.17;9.65;;;;;;;22.75;65.13;101638.03;5110918;28;20464;-56
2022/08/20 09:22:39;;;;;;;13.95;8.80;;;;;;;22.83;62.78;101634.53;5110861;28;20073;-56
2022/08/20 09:25:07;;;;;;;18.13;8.88;;;;;;;23.07;62.57;101640.16;5112116;28;20475;-56
2022/08/20 09:27:35;;;;;;;15.93;8.40;;;;;;;23.26;62.03;101636.38;5127813;27;20118;-56
2022/08/20 09:30:01;;;;;;;15.93;9.48;;;;;;;23.36;59.12;101628.13;5110443;28;20028;-56
2022/08/20 09:32:26;;;;;;;19.08;9.40;;;;;;;23.47;61.90;101626.97;5144795;27;20068;-56
2022/08/20 09:34:58;;;;;;;17.67;8.55;;;;;;;23.51;59.15;101631.94;5110746;28;20028;-56
2022/08/20 09:37:26;;;;;;;12.90;7.22;;;;;;;23.78;60.85;101624.63;5112121;28;20027;-56
2022/08/20 09:39:55;;;;;;;13.32;7.15;;;;;;;23.95;59.68;101626.38;5111942;28;20035;-56
2022/08/20 09:42:23;;;;;;;13.40;6.90;;;;;;;23.94;56.97;101637.38;5110509;28;20080;-57
2022/08/20 09:44:50;;;;;;;13.07;6.75;;;;;;;24.24;57.58;101631.38;5111220;28;20030;-57
2022/08/20 09:47:16;;;;;;;12.75;7.13;;;;;;;24.36;57.66;101626.44;5111899;28;20414;-56
2022/08/20 09:49:45;;;;;;;13.73;6.28;;;;;;;24.45;55.90;101625.47;5110638;28;20028;-57
2022/08/20 09:52:28;;;;;;;12.02;7.78;;;;;;;24.24;57.13;101627.81;5112050;28;20047;-57
2022/08/20 09:54:58;;;;;;;14.70;8.90;;;;;;;24.11;54.99;101628.25;5112012;28;20030;-57
2022/08/20 09:57:25;;;;;;;11.85;7.38;;;;;;;24.24;53.45;101623.22;5111482;28;20122;-56
2022/08/20 09:59:55;;;;;;;15.57;7.38;;;;;;;24.45;55.77;101632.78;5111059;28;20026;-57
2022/08/20 10:02:21;;;;;;;12.18;8.52;;;;;;;24.55;56.13;101629.91;5110625;28;20046;-57
2022/08/20 10:04:47;;;;;;;17.33;9.23;;;;;;;24.63;54.22;101636.19;5111716;28;20047;-56
2022/08/20 10:07:13;;;;;;;13.23;6.32;;;;;;;24.98;55.58;101628.69;5144963;27;20441;-56
2022/08/20 10:09:38;;;;;;;9.13;4.22;;;;;;;25.02;52.57;101635.47;5110213;28;20034;-56
2022/08/20 10:12:04;;;;;;;14.23;4.03;;;;;;;25.06;49.10;101634.13;5111768;28;20444;-57
2022/08/20 10:14:30;;;;;;;12.57;5.00;;;;;;;25.17;49.14;101623.91;5109896;28;20036;-57
2022/08/20 10:16:59;;;;;;;10.45;5.43;;;;;;;25.24;50.59;101635.84;5111772;28;20467;-56
2022/08/20 10:19:24;;;;;;;;;;;;;;;25.68;54.13;101635.31;5111881;28;20027;-57
2022/08/20 10:21:52;;;;;;;11.63;5.50;;;;;;;25.64;49.74;101631.25;5111691;28;19919;-57
2022/08/20 10:24:18;;;;;;;12.55;4.57;;;;;;;25.28;49.55;101631.72;5112031;28;20547;-57
2022/08/20 10:26:46;;;;;;;14.45;5.50;;;;;;;25.18;48.74;101637.38;5115503;28;20053;-57
2022/08/20 10:29:12;;;;;;;10.98;5.35;;;;;;;25.22;47.29;101640.59;5114970;28;20470;-57
2022/08/20 10:31:37;;;;;;;13.43;4.70;;;;;;;25.56;47.50;101634.84;5113954;28;20032;-57
2022/08/20 10:34:03;;;;;;;15.95;6.10;;;;;;;25.66;48.56;101635.50;5115226;27;20378;-57
2022/08/20 10:36:28;;;;;;;12.40;4.95;;;;;;;26.05;46.31;101624.59;5096854;28;20032;-57
2022/08/20 10:38:54;;;;;;;14.77;5.65;;;;;;;26.08;45.93;101628.00;5113763;28;20050;-56
2022/08/20 10:41:20;;;;;;;17.60;5.13;;;;;;;26.25;47.24;101637.78;5148027;27;20390;-56
2022/08/20 10:43:49;;;;;;;14.10;5.45;;;;;;;26.40;45.80;101632.38;5113050;28;20024;-56
2022/08/20 10:46:15;;;;;;;9.15;3.72;;;;;;;26.49;44.98;101631.28;5113994;28;20470;-56
2022/08/20 10:48:41;;;;;;;9.45;3.03;;;;;;;26.34;44.47;101639.41;5115068;28;20031;-57
2022/08/20 10:51:07;;;;;;;8.55;3.22;;;;;;;26.16;41.62;101638.88;5114803;28;20046;-56
2022/08/20 10:53:33;;;;;;;10.80;3.55;;;;;;;26.26;45.61;101640.31;5113395;28;20466;-57
2022/08/20 10:55:59;;;;;;;12.77;4.65;;;;;;;26.44;45.64;101636.44;5114604;28;20038;-57
2022/08/20 10:58:25;;;;;;;10.52;3.70;;;;;;;26.63;43.30;101633.25;5113901;28;20015;-57
2022/08/20 11:00:52;;;;;;;10.52;3.58;;;;;;;27.07;44.42;101637.97;5113557;28;20027;-56
2022/08/20 11:03:19;;;;;;;12.50;4.43;;;;;;;27.27;45.66;101637.47;5114748;27;20020;-56
2022/08/20 11:05:46;;;;;;;9.03;3.33;;;;;;;27.45;43.76;101635.22;5115012;28;20027;-56
2022/08/20 11:08:14;;;;;;;12.00;3.55;;;;;;;27.56;43.04;101642.94;5113455;28;20157;-56
2022/08/20 11:10:40;;;;;;;12.48;3.45;;;;;;;27.36;42.09;101628.16;5113267;28;20019;-56
2022/08/20 11:13:06;;;;;;;11.32;3.70;;;;;;;27.05;42.53;101640.03;5113717;28;20046;-56
2022/08/20 11:15:35;;;;;;;8.63;3.22;;;;;;;27.36;42.36;101634.47;5114555;28;20074;-56
2022/08/20 11:18:03;;;;;;;;;;;;;;;27.89;42.90;101626.16;5113667;28;20043;-56
2022/08/20 11:20:30;;;;;;;12.05;2.92;;;;;;;27.58;41.91;101626.34;5114291;28;19918;-57
2022/08/20 11:22:56;;;;;;;8.13;3.08;;;;;;;27.50;42.46;101627.31;5129991;27;20031;-56
2022/08/20 11:25:22;;;;;;;12.88;3.53;;;;;;;27.03;41.34;101628.47;5114288;28;20039;-57
2022/08/20 11:27:49;;;;;;;11.68;2.53;;;;;;;26.87;41.41;101628.63;5095302;28;20393;-56